Time;durP1;ratioP1;P1;durP2;ratioP2;P2;SDS_P1;SDS_P2;PMS_P1;PMS_P2;Temp;Humidity;BMP_temperature;BMP_pressure;BME280_temperature;BME280_humidity;BME280_pressure;Samples;Min_cycle;Max_cycle;Signal;HPM_P1;HPM_P2
2023/03/11 00:01:07;;;;;;;3.70;1.20;;;2.60;99.90;;;;;;4952628;29;20244;-78
2023/03/11 00:03:35;;;;;;;1.60;0.77;;;2.60;99.90;;;;;;4952024;29;20197;-78
2023/03/11 00:06:03;;;;;;;3.43;0.90;;;2.60;99.90;;;;;;4952237;29;20322;-77
2023/03/11 00:08:30;;;;;;;2.80;0.70;;;2.60;99.90;;;;;;4952286;28;20296;-78
2023/03/11 00:10:59;;;;;;;1.93;0.90;;;2.60;99.90;;;;;;4951732;28;20284;-77
2023/03/11 00:13:27;;;;;;;4.13;0.83;;;2.60;99.90;;;;;;4952300;28;20568;-79
2023/03/11 00:15:55;;;;;;;2.63;0.83;;;2.50;1.00;;;;;;4951949;29;20225;-79
2023/03/11 00:18:25;;;;;;;6.93;1.93;;;2.40;99.90;;;;;;4951219;28;20201;-79
2023/03/11 00:20:55;;;;;;;7.70;1.47;;;2.40;99.90;;;;;;4952371;29;20292;-77
2023/03/11 00:23:22;;;;;;;9.50;2.00;;;2.50;99.90;;;;;;4951807;29;20229;-79
2023/03/11 00:25:49;;;;;;;2.93;1.10;;;2.50;99.90;;;;;;4950872;28;20878;-77
2023/03/11 00:28:16;;;;;;;4.23;1.20;;;2.40;99.90;;;;;;4957037;28;20672;-77
2023/03/11 00:30:45;;;;;;;3.63;0.80;;;2.50;99.90;;;;;;4970903;28;20871;-76
2023/03/11 00:33:15;;;;;;;2.53;0.80;;;2.50;99.90;;;;;;4957739;28;20287;-77
2023/03/11 00:35:42;;;;;;;4.57;0.93;;;2.50;99.90;;;;;;4954512;29;20517;-77
2023/03/11 00:38:15;;;;;;;3.03;0.83;;;2.50;99.90;;;;;;4953628;28;20280;-78
2023/03/11 00:40:43;;;;;;;2.47;0.87;;;2.50;99.90;;;;;;4953841;28;20216;-77
2023/03/11 00:43:10;;;;;;;5.60;1.10;;;2.60;99.90;;;;;;4954243;29;20551;-78
2023/03/11 00:45:37;;;;;;;3.90;0.80;;;2.60;99.90;;;;;;4953363;28;20208;-78
2023/03/11 00:48:05;;;;;;;3.10;1.00;;;2.50;99.90;;;;;;4953725;28;20345;-78
2023/03/11 00:50:34;;;;;;;6.00;1.77;;;2.50;99.90;;;;;;4953491;28;20244;-79
2023/03/11 00:53:01;;;;;;;3.20;1.00;;;2.50;99.90;;;;;;4952847;28;20237;-79
2023/03/11 00:55:31;;;;;;;3.23;0.83;;;2.40;99.90;;;;;;4953789;29;20229;-80
2023/03/11 00:58:01;;;;;;;5.73;0.90;;;2.40;99.90;;;;;;4953949;29;20217;-79
2023/03/11 01:00:30;;;;;;;4.60;1.00;;;2.30;99.90;;;;;;4952699;28;20622;-80
2023/03/11 01:02:57;;;;;;;3.47;0.70;;;2.40;99.90;;;;;;4953566;29;20629;-79
2023/03/11 01:05:27;;;;;;;2.93;1.10;;;2.30;99.90;;;;;;4953535;29;20709;-79
2023/03/11 01:07:54;;;;;;;4.13;1.40;;;2.30;99.90;;;;;;4953506;29;20225;-79
2023/03/11 01:10:21;;;;;;;4.17;1.00;;;2.30;99.90;;;;;;4953241;28;20296;-79
2023/03/11 01:12:49;;;;;;;2.50;0.90;;;2.30;99.90;;;;;;4953250;29;20233;-79
2023/03/11 01:15:21;;;;;;;5.07;1.13;;;2.20;99.90;;;;;;4953210;28;20315;-79
2023/03/11 01:17:48;;;;;;;2.83;0.73;;;2.20;99.90;;;;;;4953061;28;20274;-79
2023/03/11 01:20:16;;;;;;;2.10;0.87;;;2.20;99.90;;;;;;4972082;28;20299;-79
2023/03/11 01:22:43;;;;;;;3.67;1.13;;;2.20;99.90;;;;;;4972696;28;20209;-79
2023/03/11 01:25:12;;;;;;;2.47;1.00;;;2.10;99.90;;;;;;4968090;28;20324;-79
2023/03/11 01:27:39;;;;;;;2.60;1.20;;;2.00;99.90;;;;;;4953172;29;20618;-78
2023/03/11 01:30:19;;;;;;;1.03;0.80;;;2.00;99.90;;;;;;4953507;29;20292;-79
2023/03/11 01:32:46;;;;;;;4.60;1.03;;;2.10;99.90;;;;;;4953548;29;20288;-80
2023/03/11 01:35:16;;;;;;;4.33;0.97;;;2.10;99.90;;;;;;4952701;28;20213;-79
2023/03/11 01:37:43;;;;;;;2.67;0.90;;;2.10;99.90;;;;;;4956893;28;20563;-79
2023/03/11 01:40:16;;;;;;;1.53;0.70;;;2.10;99.90;;;;;;4957369;29;20290;-79
2023/03/11 01:42:43;;;;;;;3.97;0.87;;;2.10;99.90;;;;;;4956931;29;20248;-79
2023/03/11 01:45:34;;;;;;;5.83;1.00;;;2.10;99.90;;;;;;4956968;28;20758;-79
2023/03/11 01:48:01;;;;;;;8.10;1.57;;;2.10;99.90;;;;;;4956607;29;20594;-79
2023/03/11 01:50:34;;;;;;;1.73;0.80;;;2.10;99.90;;;;;;4957123;28;20204;-79
2023/03/11 01:53:01;;;;;;;5.23;0.93;;;2.10;99.90;;;;;;4976081;28;20275;-79
2023/03/11 01:55:28;;;;;;;1.70;0.90;;;2.10;99.90;;;;;;4973239;28;20252;-79
2023/03/11 01:57:56;;;;;;;8.10;1.10;;;2.10;99.90;;;;;;4956776;29;20205;-79
2023/03/11 02:00:24;;;;;;;2.57;0.90;;;2.10;99.90;;;;;;4956597;28;20288;-79
2023/03/11 02:02:52;;;;;;;2.60;0.77;;;2.00;99.90;;;;;;4956848;29;20284;-80
2023/03/11 02:05:20;;;;;;;3.73;1.00;;;2.00;99.90;;;;;;4956584;28;20686;-79
2023/03/11 02:07:48;;;;;;;2.97;0.80;;;2.00;99.90;;;;;;4956212;28;20291;-79
2023/03/11 02:10:15;;;;;;;3.47;0.80;;;2.00;99.90;;;;;;4956297;28;20293;-79
2023/03/11 02:12:43;;;;;;;2.23;1.57;;;1.90;99.90;;;;;;4956614;28;20296;-79
2023/03/11 02:15:11;;;;;;;3.17;0.90;;;1.90;99.90;;;;;;4956888;28;20225;-78
2023/03/11 02:17:42;;;;;;;4.20;1.00;;;1.80;99.90;;;;;;4957588;28;20689;-77
2023/03/11 02:20:19;;;;;;;5.53;0.97;;;1.80;99.90;;;;;;4975695;28;20545;-78
2023/03/11 02:22:47;;;;;;;1.57;1.30;;;1.80;99.90;;;;;;4957856;28;20503;-78
2023/03/11 02:25:20;;;;;;;2.40;0.80;;;1.80;99.90;;;;;;4956185;29;20229;-79
2023/03/11 02:27:52;;;;;;;1.33;0.60;;;1.80;99.90;;;;;;4956563;28;20284;-79
2023/03/11 02:30:21;;;;;;;6.07;1.03;;;1.80;99.90;;;;;;4955704;28;20285;-78
2023/03/11 02:32:49;;;;;;;2.17;1.13;;;1.70;99.90;;;;;;4956118;29;20190;-79
2023/03/11 02:35:17;;;;;;;4.23;0.90;;;1.70;99.90;;;;;;4956370;29;20209;-78
2023/03/11 02:37:45;;;;;;;2.57;0.77;;;1.60;99.90;;;;;;4955526;28;20694;-78
2023/03/11 02:40:44;;;;;;;4.60;0.90;;;1.60;99.90;;;;;;4955995;29;20201;-78
2023/03/11 02:43:15;;;;;;;4.03;0.73;;;1.60;99.90;;;;;;4955394;28;20206;-79
2023/03/11 02:45:45;;;;;;;3.07;0.83;;;1.50;99.90;;;;;;4955221;29;20249;-80
2023/03/11 02:48:14;;;;;;;3.97;0.90;;;1.50;99.90;;;;;;4955381;28;20260;-79
2023/03/11 02:50:42;;;;;;;3.77;0.90;;;1.50;99.90;;;;;;4955971;29;20232;-79
2023/03/11 02:53:09;;;;;;;1.37;0.80;;;1.50;99.90;;;;;;4955842;28;20213;-79
2023/03/11 02:55:36;;;;;;;2.27;1.00;;;1.40;99.90;;;;;;4955679;28;20288;-79
2023/03/11 02:58:03;;;;;;;4.47;1.23;;;1.40;99.90;;;;;;4954963;28;20205;-79
2023/03/11 03:00:32;;;;;;;3.87;0.90;;;1.40;99.90;;;;;;4955455;28;20550;-79
2023/03/11 03:02:59;;;;;;;1.40;0.90;;;1.40;99.90;;;;;;4956050;29;20256;-79
2023/03/11 03:05:26;;;;;;;2.07;0.73;;;1.30;99.90;;;;;;4954961;28;20311;-79
2023/03/11 03:07:53;;;;;;;1.97;0.60;;;1.30;99.90;;;;;;4955295;29;20316;-79
2023/03/11 03:10:22;;;;;;;1.53;1.00;;;1.20;99.90;;;;;;4955478;28;20292;-79
2023/03/11 03:12:49;;;;;;;2.53;1.00;;;1.20;99.90;;;;;;4955292;28;20201;-79
2023/03/11 03:15:16;;;;;;;2.40;1.00;;;1.20;99.90;;;;;;4955450;28;20256;-79
2023/03/11 03:17:45;;;;;;;2.93;0.97;;;1.10;99.90;;;;;;4954836;28;20315;-79
2023/03/11 03:20:13;;;;;;;4.67;0.90;;;1.00;99.90;;;;;;4954918;29;20766;-79
2023/03/11 03:22:42;;;;;;;3.43;1.03;;;1.00;99.90;;;;;;4955150;29;20277;-79
2023/03/11 03:25:10;;;;;;;3.50;1.23;;;1.00;99.90;;;;;;4954953;28;20724;-79
2023/03/11 03:27:37;;;;;;;1.93;0.80;;;1.00;99.90;;;;;;4954876;29;20629;-77
2023/03/11 03:30:06;;;;;;;3.87;1.10;;;0.90;99.90;;;;;;4955560;29;20313;-77
2023/03/11 03:32:33;;;;;;;1.63;0.97;;;0.90;99.90;;;;;;4955127;29;20661;-77
2023/03/11 03:35:01;;;;;;;6.43;1.17;;;0.90;99.90;;;;;;4954791;28;20300;-77
2023/03/11 03:37:29;;;;;;;2.60;0.70;;;0.80;99.90;;;;;;4955358;29;20296;-77
2023/03/11 03:39:55;;;;;;;1.53;0.83;;;0.80;99.90;;;;;;4955084;28;20245;-76
2023/03/11 03:42:24;;;;;;;3.40;2.00;;;0.80;99.90;;;;;;4955101;28;20662;-77
2023/03/11 03:44:52;;;;;;;0.87;0.60;;;0.70;99.90;;;;;;4954999;28;20193;-77
2023/03/11 03:47:19;;;;;;;2.50;0.70;;;0.70;99.90;;;;;;4954908;29;20197;-77
2023/03/11 03:49:46;;;;;;;3.83;0.90;;;0.60;99.90;;;;;;4954745;29;20206;-77
2023/03/11 03:52:15;;;;;;;0.97;0.60;;;0.60;99.90;;;;;;4955181;28;20288;-76
2023/03/11 03:54:41;;;;;;;1.63;0.77;;;0.50;99.90;;;;;;4955003;29;20216;-76
2023/03/11 03:57:09;;;;;;;1.87;0.67;;;0.50;99.90;;;;;;4954689;28;20308;-76
2023/03/11 03:59:36;;;;;;;1.70;0.60;;;0.50;99.90;;;;;;4954888;28;20233;-77
2023/03/11 04:02:03;;;;;;;0.77;0.57;;;0.40;99.90;;;;;;4954241;28;20637;-76
2023/03/11 04:04:30;;;;;;;3.10;1.00;;;0.30;99.90;;;;;;4954912;29;20209;-77
2023/03/11 04:06:57;;;;;;;1.73;0.90;;;0.30;99.90;;;;;;4954738;29;20583;-78
2023/03/11 04:09:25;;;;;;;1.47;0.77;;;0.20;99.90;;;;;;4954352;28;20240;-78
2023/03/11 04:11:52;;;;;;;1.47;0.70;;;0.20;99.90;;;;;;4954384;29;20292;-78
2023/03/11 04:14:19;;;;;;;2.87;0.70;;;0.10;99.90;;;;;;4954857;28;20229;-78
2023/03/11 04:16:46;;;;;;;5.53;0.80;;;0.10;99.90;;;;;;4954181;29;20256;-78
2023/03/11 04:19:13;;;;;;;2.50;1.03;;;0.10;99.90;;;;;;4954469;28;20233;-77
2023/03/11 04:21:40;;;;;;;2.20;1.40;;;0.00;99.90;;;;;;4954978;29;20241;-77
2023/03/11 04:24:07;;;;;;;2.23;0.80;;;0.00;99.90;;;;;;4953783;29;20240;-78
2023/03/11 04:26:36;;;;;;;2.27;0.63;;;0.00;99.90;;;;;;4954261;28;20316;-77
2023/03/11 04:29:02;;;;;;;1.30;0.90;;;-0.10;99.90;;;;;;4954274;28;20292;-78
2023/03/11 04:31:29;;;;;;;4.03;1.03;;;-0.10;99.90;;;;;;4953786;28;20358;-78
2023/03/11 04:33:56;;;;;;;1.30;0.73;;;-0.20;99.90;;;;;;4954009;28;20277;-77
2023/03/11 04:36:23;;;;;;;1.13;0.77;;;-0.20;99.90;;;;;;4953997;28;20251;-77
2023/03/11 04:38:50;;;;;;;2.23;0.80;;;-0.20;99.90;;;;;;4953851;29;20206;-79
2023/03/11 04:41:17;;;;;;;1.20;0.93;;;-0.20;99.90;;;;;;4954196;29;20236;-78
2023/03/11 04:43:45;;;;;;;3.13;0.73;;;-0.30;99.90;;;;;;4953471;28;20236;-78
2023/03/11 04:46:12;;;;;;;3.27;0.93;;;-0.30;99.90;;;;;;4953691;29;20629;-79
2023/03/11 04:48:39;;;;;;;3.17;0.87;;;-0.30;99.90;;;;;;4953934;28;20225;-80
2023/03/11 04:51:07;;;;;;;2.60;1.10;;;-0.40;99.90;;;;;;4954149;29;20211;-78
2023/03/11 04:53:34;;;;;;;2.70;0.77;;;-0.40;99.90;;;;;;4953839;28;20200;-78
2023/03/11 04:56:01;;;;;;;0.93;0.70;;;-0.50;99.90;;;;;;4954441;29;20300;-78
2023/03/11 04:58:28;;;;;;;4.00;0.90;;;-0.50;99.90;;;;;;4953650;28;20291;-79
2023/03/11 05:00:56;;;;;;;2.37;0.90;;;-0.50;99.90;;;;;;4954133;29;20221;-78
2023/03/11 05:03:24;;;;;;;1.40;0.83;;;-0.50;99.90;;;;;;4971457;28;20315;-79
2023/03/11 05:05:53;;;;;;;1.57;0.80;;;-0.50;99.90;;;;;;4972523;28;20602;-78
2023/03/11 05:08:20;;;;;;;2.30;1.20;;;-0.60;99.90;;;;;;4963904;28;20265;-78
2023/03/11 05:10:47;;;;;;;3.67;1.57;;;-0.60;99.90;;;;;;4955844;28;20263;-77
2023/03/11 05:13:14;;;;;;;4.10;1.60;;;-0.60;99.90;;;;;;4960151;29;20236;-77
2023/03/11 05:15:41;;;;;;;2.90;1.40;;;-0.70;99.90;;;;;;4961061;28;20689;-78
2023/03/11 05:18:09;;;;;;;4.13;1.60;;;-0.70;99.90;;;;;;4959716;28;20232;-77
2023/03/11 05:20:36;;;;;;;1.83;1.20;;;-0.70;99.90;;;;;;4959837;29;20224;-78
2023/03/11 05:23:04;;;;;;;2.90;1.50;;;-0.70;99.90;;;;;;4960241;28;20235;-78
2023/03/11 05:25:31;;;;;;;4.00;1.10;;;-0.70;99.90;;;;;;4959747;28;20267;-80
2023/03/11 05:27:58;;;;;;;1.03;0.70;;;-0.70;99.90;;;;;;4960494;28;20197;-79
2023/03/11 05:30:25;;;;;;;1.70;1.00;;;-0.70;99.90;;;;;;4960390;28;20284;-78
2023/03/11 05:32:52;;;;;;;1.87;1.10;;;-0.80;99.90;;;;;;4960045;28;20284;-79
2023/03/11 05:35:20;;;;;;;2.37;1.10;;;-0.80;99.90;;;;;;4960669;28;20494;-80
2023/03/11 05:37:48;;;;;;;2.97;0.80;;;-0.80;99.90;;;;;;4959968;28;20307;-79
2023/03/11 05:40:16;;;;;;;0.90;0.70;;;-0.80;99.90;;;;;;4959728;29;20209;-80
2023/03/11 05:42:43;;;;;;;2.53;1.00;;;-0.90;99.90;;;;;;4959676;28;20237;-80
2023/03/11 05:45:10;;;;;;;1.90;1.00;;;-0.90;99.90;;;;;;4960628;28;20538;-80
2023/03/11 05:47:37;;;;;;;3.20;1.10;;;-0.90;99.90;;;;;;4960877;28;20237;-78
2023/03/11 05:50:06;;;;;;;1.47;0.90;;;-0.90;99.90;;;;;;4960473;28;20202;-80
2023/03/11 05:52:34;;;;;;;3.90;0.90;;;-1.00;99.90;;;;;;4960460;28;20630;-79
2023/03/11 05:55:01;;;;;;;2.43;1.17;;;-1.00;99.90;;;;;;4959925;28;20264;-80
2023/03/11 05:57:28;;;;;;;3.13;1.10;;;-1.00;99.90;;;;;;4960415;29;20264;-80
2023/03/11 05:59:55;;;;;;;1.73;0.80;;;-1.00;99.90;;;;;;4959934;28;20216;-80
2023/03/11 06:02:22;;;;;;;3.90;1.10;;;-1.00;99.90;;;;;;4960221;28;20233;-78
2023/03/11 06:04:49;;;;;;;3.43;0.93;;;-1.00;99.90;;;;;;4960512;29;20209;-80
2023/03/11 06:07:16;;;;;;;2.20;0.90;;;-1.10;99.90;;;;;;4960079;29;20646;-79
2023/03/11 06:09:44;;;;;;;2.17;1.03;;;-1.10;99.90;;;;;;4959438;28;20568;-80
2023/03/11 06:12:11;;;;;;;1.57;0.90;;;-1.10;99.90;;;;;;4959807;28;20449;-78
2023/03/11 06:14:38;;;;;;;1.90;1.07;;;-1.10;99.90;;;;;;4960167;28;20578;-79
2023/03/11 06:17:05;;;;;;;2.53;1.27;;;-1.10;99.90;;;;;;4959795;29;20263;-81
2023/03/11 06:19:32;;;;;;;2.33;1.20;;;-1.20;99.90;;;;;;4960195;28;20232;-79
2023/03/11 06:21:59;;;;;;;2.43;1.00;;;-1.20;99.90;;;;;;4957977;28;20293;-79
2023/03/11 06:24:26;;;;;;;2.37;1.13;;;-1.20;99.90;;;;;;4955619;29;20252;-77
2023/03/11 06:26:54;;;;;;;1.50;1.10;;;-1.20;99.90;;;;;;4956855;28;20276;-78
2023/03/11 06:29:23;;;;;;;2.20;1.07;;;-1.20;99.90;;;;;;4956372;29;20213;-80
2023/03/11 06:31:50;;;;;;;1.90;1.10;;;-1.10;99.90;;;;;;4956332;28;20224;-79
2023/03/11 06:34:17;;;;;;;2.07;1.20;;;-1.10;99.90;;;;;;4956193;28;20215;-77
2023/03/11 06:36:44;;;;;;;2.33;1.10;;;-1.10;99.90;;;;;;4956214;28;20233;-79
2023/03/11 06:39:14;;;;;;;2.03;0.87;;;-1.10;99.90;;;;;;4956401;28;20261;-79
2023/03/11 06:41:41;;;;;;;3.00;1.40;;;-1.10;99.90;;;;;;4956686;29;20213;-78
2023/03/11 06:44:11;;;;;;;5.20;1.33;;;-1.10;99.90;;;;;;4955348;28;20616;-78
2023/03/11 06:46:39;;;;;;;3.80;1.90;;;-1.10;99.90;;;;;;4956469;28;20347;-79
2023/03/11 06:49:06;;;;;;;2.77;1.20;;;-1.10;99.90;;;;;;4956085;28;20214;-77
2023/03/11 06:51:33;;;;;;;4.20;1.63;;;-1.10;99.90;;;;;;4955814;29;20288;-80
2023/03/11 06:54:00;;;;;;;4.43;1.67;;;-1.00;99.90;;;;;;4956698;29;20239;-79
2023/03/11 06:56:27;;;;;;;1.57;1.10;;;-1.10;99.90;;;;;;4966679;28;20236;-80
2023/03/11 06:58:54;;;;;;;2.17;1.10;;;-1.00;99.90;;;;;;4975563;28;20316;-80
2023/03/11 07:01:24;;;;;;;2.37;1.47;;;-1.00;99.90;;;;;;4975560;28;20551;-79
2023/03/11 07:03:51;;;;;;;3.30;1.30;;;-1.00;99.90;;;;;;4966769;28;20518;-79
2023/03/11 07:06:20;;;;;;;3.47;1.37;;;-1.00;99.90;;;;;;4955606;28;20282;-80
2023/03/11 07:08:48;;;;;;;2.50;1.30;;;-1.00;99.90;;;;;;4963728;28;20292;-79
2023/03/11 07:11:17;;;;;;;5.00;1.83;;;-0.90;99.90;;;;;;4973619;28;20256;-80
2023/03/11 07:13:45;;;;;;;3.87;1.43;;;-0.90;99.90;;;;;;4974432;28;20236;-78
2023/03/11 07:16:14;;;;;;;3.33;1.30;;;-0.90;99.90;;;;;;4974092;28;20307;-80
2023/03/11 07:18:43;;;;;;;5.13;2.10;;;-0.90;99.90;;;;;;4974886;28;20228;-80
2023/03/11 07:21:13;;;;;;;3.90;1.87;;;-0.90;99.90;;;;;;4974823;28;20204;-79
2023/03/11 07:23:41;;;;;;;5.67;2.20;;;-0.90;99.90;;;;;;4963150;28;20220;-77
2023/03/11 07:26:10;;;;;;;3.60;2.00;;;-0.80;99.90;;;;;;4954804;28;20243;-78
2023/03/11 07:28:37;;;;;;;8.47;2.87;;;-0.80;99.90;;;;;;4955278;28;20197;-77
2023/03/11 07:31:08;;;;;;;3.93;2.40;;;-0.80;99.90;;;;;;4955524;29;20209;-80
2023/03/11 07:33:35;;;;;;;6.03;3.07;;;-0.70;99.90;;;;;;4970500;28;20204;-79
2023/03/11 07:36:07;;;;;;;6.87;2.73;;;-0.70;99.90;;;;;;4975328;28;20558;-79
2023/03/11 07:38:35;;;;;;;7.67;2.90;;;-0.70;99.90;;;;;;4974984;28;20324;-80
2023/03/11 07:41:02;;;;;;;5.13;2.83;;;-0.60;99.90;;;;;;4972953;28;20283;-80
2023/03/11 07:43:29;;;;;;;5.30;2.70;;;-0.60;99.90;;;;;;4974734;28;20234;-80
2023/03/11 07:46:04;;;;;;;7.10;3.10;;;-0.50;99.90;;;;;;4959484;28;20297;-79
2023/03/11 07:48:31;;;;;;;6.10;3.27;;;-0.50;99.90;;;;;;4955305;29;20193;-80
2023/03/11 07:51:02;;;;;;;4.53;3.07;;;-0.40;99.90;;;;;;4961090;28;20200;-80
2023/03/11 07:53:31;;;;;;;6.53;3.60;;;-0.30;99.90;;;;;;4973507;28;20206;-77
2023/03/11 07:55:59;;;;;;;4.90;2.70;;;-0.30;99.90;;;;;;4973290;28;20511;-80
2023/03/11 07:58:26;;;;;;;4.70;3.20;;;-0.20;99.90;;;;;;4967566;28;20303;-80
2023/03/11 08:04:35;;;;;;;5.10;3.13;;;0.00;99.90;;;;;;4940620;28;20201;-79
2023/03/11 08:07:02;;;;;;;9.27;3.40;;;0.10;99.90;;;;;;4967743;28;20574;-79
2023/03/11 08:09:31;;;;;;;6.03;3.27;;;0.20;99.90;;;;;;4965773;28;20205;-78
2023/03/11 08:11:57;;;;;;;8.00;3.47;;;0.30;99.90;;;;;;4973991;28;20218;-78
2023/03/11 08:14:24;;;;;;;6.93;3.43;;;0.40;99.90;;;;;;4972823;28;20254;-78
2023/03/11 08:16:51;;;;;;;8.10;3.20;;;0.60;99.90;;;;;;4962595;28;20315;-78
2023/03/11 08:19:18;;;;;;;5.13;3.10;;;0.70;99.90;;;;;;4908385;28;20220;-79
2023/03/11 08:21:45;;;;;;;4.40;2.53;;;0.80;99.90;;;;;;4972932;28;20196;-79
2023/03/11 08:24:14;;;;;;;4.33;2.43;;;0.90;99.90;;;;;;4964949;28;20229;-79
2023/03/11 08:26:43;;;;;;;4.80;2.27;;;1.00;99.90;;;;;;4973110;28;20224;-77
2023/03/11 08:29:10;;;;;;;8.23;2.37;;;1.10;99.90;;;;;;4969569;28;20509;-77
2023/03/11 08:31:40;;;;;;;2.20;1.43;;;1.20;99.90;;;;;;4971335;28;20291;-80
2023/03/11 08:34:09;;;;;;;4.50;1.07;;;1.30;99.90;;;;;;4972298;28;20207;-79
2023/03/11 08:36:36;;;;;;;5.83;1.80;;;1.50;99.90;;;;;;4971267;28;20557;-77
2023/03/11 08:39:03;;;;;;;2.60;1.30;;;1.70;99.90;;;;;;4972006;28;20305;-78
2023/03/11 08:41:30;;;;;;;2.37;1.23;;;1.90;99.90;;;;;;4970217;28;20247;-77
2023/03/11 08:43:58;;;;;;;3.50;2.10;;;2.10;99.90;;;;;;4970287;28;20288;-77
2023/03/11 08:46:27;;;;;;;6.63;1.87;;;2.30;99.90;;;;;;4972241;28;20200;-75
2023/03/11 08:48:55;;;;;;;4.23;1.70;;;2.50;99.90;;;;;;4968382;28;20652;-76
2023/03/11 08:51:23;;;;;;;3.07;2.17;;;2.80;99.90;;;;;;4972424;28;20280;-76
2023/03/11 08:53:50;;;;;;;6.07;4.33;;;3.10;99.90;;;;;;4973069;28;20214;-77
2023/03/11 08:56:17;;;;;;;4.83;2.20;;;3.30;99.90;;;;;;4958999;28;20201;-75
2023/03/11 08:58:45;;;;;;;5.43;1.80;;;3.60;99.90;;;;;;4953203;29;20288;-77
2023/03/11 09:01:13;;;;;;;1.80;1.00;;;3.90;99.90;;;;;;4953106;28;20220;-77
2023/03/11 09:03:40;;;;;;;1.43;0.83;;;4.00;99.90;;;;;;4953348;29;20201;-77
2023/03/11 09:06:10;;;;;;;2.83;0.60;;;4.20;99.90;;;;;;4970253;28;20682;-77
2023/03/11 09:08:37;;;;;;;4.87;1.00;;;4.30;99.90;;;;;;4972659;28;20565;-77
2023/03/11 09:11:05;;;;;;;2.93;0.80;;;4.40;99.90;;;;;;4962020;28;20296;-77
2023/03/11 09:13:32;;;;;;;1.40;0.60;;;4.50;99.90;;;;;;4953166;28;20198;-76
2023/03/11 09:16:00;;;;;;;2.00;0.60;;;4.50;99.90;;;;;;4953456;28;20217;-76
2023/03/11 09:18:28;;;;;;;1.53;0.83;;;4.60;99.90;;;;;;4953742;29;20315;-77
2023/03/11 09:20:57;;;;;;;3.03;1.20;;;4.60;99.90;;;;;;4965258;28;20288;-77
2023/03/11 09:23:24;;;;;;;2.47;1.10;;;4.70;99.90;;;;;;4972928;28;20204;-76
2023/03/11 09:25:50;;;;;;;2.87;1.23;;;4.70;99.90;;;;;;4972280;28;20331;-77
2023/03/11 09:28:18;;;;;;;2.00;0.70;;;4.70;99.90;;;;;;4969439;28;20204;-77
2023/03/11 09:30:45;;;;;;;0.87;0.50;;;4.80;99.90;;;;;;4954023;29;20205;-76
2023/03/11 09:33:11;;;;;;;2.00;0.57;;;4.90;99.90;;;;;;4953265;29;20237;-77
2023/03/11 09:35:40;;;;;;;3.97;1.23;;;5.10;99.90;;;;;;4953429;29;20205;-77
2023/03/11 09:38:07;;;;;;;4.03;0.87;;;5.40;99.90;;;;;;4953417;28;20231;-77
2023/03/11 09:40:49;;;;;;;4.43;1.27;;;5.60;99.90;;;;;;4970948;28;20295;-76
2023/03/11 09:43:25;;;;;;;2.77;0.73;;;5.90;99.90;;;;;;4973634;28;20275;-76
2023/03/11 09:46:00;;;;;;;3.80;0.70;;;6.10;99.90;;;;;;4971118;28;20287;-77
2023/03/11 09:48:32;;;;;;;2.33;1.07;;;6.30;99.90;;;;;;4952959;29;20200;-76
2023/03/11 09:51:07;;;;;;;1.03;0.67;;;6.30;99.90;;;;;;4952285;29;20821;-77
2023/03/11 09:53:41;;;;;;;1.33;0.50;;;6.40;99.90;;;;;;4951556;28;20283;-77
2023/03/11 09:56:09;;;;;;;1.80;0.57;;;6.40;99.90;;;;;;4952503;29;20715;-77
2023/03/11 09:58:39;;;;;;;3.17;0.77;;;6.50;99.90;;;;;;4955573;28;20365;-77
2023/03/11 10:01:16;;;;;;;3.30;1.10;;;6.50;99.90;;;;;;4955230;28;20220;-77
2023/03/11 10:03:44;;;;;;;3.63;0.80;;;6.60;99.90;;;;;;4973789;28;20205;-77
2023/03/11 10:06:17;;;;;;;4.43;0.70;;;6.70;99.90;;;;;;4975663;28;20208;-78
2023/03/11 10:08:48;;;;;;;2.47;0.70;;;6.80;99.90;;;;;;4972366;28;20291;-78
2023/03/11 10:11:36;;;;;;;1.97;0.57;;;6.90;99.90;;;;;;4964705;28;20284;-77
2023/03/11 10:14:13;;;;;;;0.67;0.50;;;7.00;99.90;;;;;;4975659;28;20248;-81
2023/03/11 10:16:50;;;;;;;2.33;1.10;;;7.10;99.90;;;;;;4977863;28;20294;-76
2023/03/11 10:19:29;;;;;;;4.27;1.00;;;7.10;99.90;;;;;;4978389;28;20208;-77
2023/03/11 10:22:04;;;;;;;3.83;0.90;;;7.10;99.90;;;;;;4972578;28;20628;-77
2023/03/11 10:24:50;;;;;;;2.10;1.00;;;7.20;99.90;;;;;;4970345;28;20318;-77
2023/03/11 10:27:22;;;;;;;4.33;0.80;;;7.20;99.90;;;;;;4972636;28;20307;-78
2023/03/11 10:29:57;;;;;;;2.20;1.10;;;7.20;99.90;;;;;;4968967;28;20200;-79
2023/03/11 10:32:29;;;;;;;3.87;0.70;;;7.30;99.90;;;;;;4973614;28;20208;-78
2023/03/11 10:35:04;;;;;;;4.10;1.53;;;7.30;99.90;;;;;;4974578;28;20291;-79
2023/03/11 10:37:37;;;;;;;3.37;0.97;;;7.40;99.90;;;;;;4976689;28;20208;-79
2023/03/11 10:40:17;;;;;;;3.50;0.80;;;7.50;99.90;;;;;;4980668;28;20600;-79
2023/03/11 10:42:46;;;;;;;3.70;1.40;;;7.60;99.90;;;;;;4962944;28;20622;-80
2023/03/11 10:45:15;;;;;;;0.90;0.70;;;7.70;99.90;;;;;;4970021;28;20288;-80
2023/03/11 10:47:42;;;;;;;1.73;0.73;;;7.70;99.90;;;;;;4970508;28;20208;-80
2023/03/11 10:50:13;;;;;;;2.10;0.80;;;7.80;99.90;;;;;;4971082;28;20287;-80
2023/03/11 10:53:03;;;;;;;1.67;0.70;;;8.00;99.90;;;;;;4974079;28;20223;-80
2023/03/11 10:55:30;;;;;;;1.97;0.70;;;8.00;99.90;;;;;;4973463;28;20517;-79
2023/03/11 10:58:05;;;;;;;3.57;1.20;;;8.00;99.90;;;;;;4955245;28;20292;-80
2023/03/11 11:00:32;;;;;;;2.13;0.70;;;8.00;99.90;;;;;;4956205;28;20225;-79
2023/03/11 11:03:03;;;;;;;2.00;0.57;;;8.00;99.90;;;;;;4956498;28;20205;-81
2023/03/11 11:05:32;;;;;;;4.20;1.47;;;8.10;99.90;;;;;;4955558;28;20602;-80
2023/03/11 11:08:06;;;;;;;7.03;1.63;;;8.10;99.90;;;;;;4955529;28;20197;-83
2023/03/11 11:10:34;;;;;;;2.23;0.67;;;8.20;99.90;;;;;;4955408;29;20272;-82
2023/03/11 11:13:03;;;;;;;3.40;0.70;;;8.10;99.90;;;;;;4962620;28;20676;-79
2023/03/11 11:15:32;;;;;;;0.93;0.50;;;8.10;99.90;;;;;;4975310;28;20224;-80
2023/03/11 11:18:01;;;;;;;3.73;1.10;;;8.10;99.90;;;;;;4962276;28;20284;-81
2023/03/11 11:20:30;;;;;;;3.37;0.83;;;8.10;99.90;;;;;;4955446;28;20841;-82
2023/03/11 11:22:59;;;;;;;3.23;0.70;;;8.20;99.90;;;;;;4969902;23;20473;-81
2023/03/11 11:25:30;;;;;;;2.33;1.10;;;8.20;99.90;;;;;;4994926;28;20291;-79
2023/03/11 11:27:59;;;;;;;3.27;1.07;;;8.30;99.90;;;;;;4981960;28;20594;-80
2023/03/11 11:30:28;;;;;;;2.50;1.20;;;8.40;99.90;;;;;;4975491;28;20228;-84
2023/03/11 11:32:55;;;;;;;5.70;1.00;;;8.50;99.90;;;;;;4973946;28;20292;-80
2023/03/11 11:35:23;;;;;;;2.30;1.17;;;8.60;99.90;;;;;;4975463;28;20585;-85
2023/03/11 11:37:52;;;;;;;1.23;0.80;;;8.70;99.90;;;;;;5003155;23;20237;-84
2023/03/11 11:40:27;;;;;;;2.90;0.80;;;8.80;99.90;;;;;;5014322;28;20235;-84
2023/03/11 11:42:57;;;;;;;2.90;1.03;;;8.90;99.90;;;;;;5014912;28;20271;-85
2023/03/11 11:45:32;;;;;;;2.77;1.50;;;9.00;99.90;;;;;;5010755;28;20668;-84
2023/03/11 11:48:04;;;;;;;2.17;0.70;;;9.00;99.90;;;;;;4995711;28;20271;-85
2023/03/11 11:50:35;;;;;;;3.23;0.80;;;9.20;99.90;;;;;;4994937;28;20199;-83
2023/03/11 11:53:14;;;;;;;3.33;0.87;;;9.30;99.90;;;;;;4999815;28;20300;-82
2023/03/11 11:55:47;;;;;;;4.97;1.30;;;9.30;99.90;;;;;;5014257;28;20250;-80
2023/03/11 11:58:14;;;;;;;4.13;1.30;;;9.40;99.90;;;;;;5010762;28;20282;-80
2023/03/11 12:00:54;;;;;;;2.73;1.00;;;9.40;99.90;;;;;;5014339;28;20282;-82
2023/03/11 12:03:54;;;;;;;4.27;1.13;;;9.40;99.90;;;;;;5014737;28;20286;-79
2023/03/11 12:06:29;;;;;;;4.73;1.63;;;9.40;99.90;;;;;;4995074;28;20771;-78
2023/03/11 12:09:05;;;;;;;3.43;0.90;;;9.40;99.90;;;;;;5029098;28;20198;-81
2023/03/11 12:11:42;;;;;;;3.73;1.10;;;9.40;99.90;;;;;;5013632;28;20195;-82
2023/03/11 12:14:17;;;;;;;2.03;0.60;;;9.40;99.90;;;;;;5019461;28;20234;-78
2023/03/11 12:16:51;;;;;;;3.93;0.80;;;9.30;99.90;;;;;;5033003;28;20224;-81
2023/03/11 12:19:26;;;;;;;2.90;0.77;;;9.20;99.90;;;;;;5021674;28;20329;-80
2023/03/11 12:22:23;;;;;;;1.70;1.10;;;9.20;99.90;;;;;;5011020;28;20615;-82
2023/03/11 12:25:11;;;;;;;5.57;1.17;;;9.20;99.90;;;;;;5013811;28;20211;-81
2023/03/11 12:27:48;;;;;;;2.17;0.80;;;9.10;99.90;;;;;;5013796;28;20198;-82
2023/03/11 12:30:18;;;;;;;3.20;0.87;;;9.10;99.90;;;;;;5018086;28;20225;-78
2023/03/11 12:32:49;;;;;;;3.47;1.20;;;9.00;99.90;;;;;;5033008;28;20651;-82
2023/03/11 12:35:22;;;;;;;3.33;0.97;;;8.90;99.90;;;;;;5018598;28;20215;-79
2023/03/11 12:37:57;;;;;;;2.27;0.80;;;8.80;99.90;;;;;;5018154;28;20336;-79
2023/03/11 12:40:58;;;;;;;4.90;1.00;;;8.80;99.90;;;;;;5028314;28;20232;-84
2023/03/11 12:44:01;;;;;;;1.23;0.60;;;8.80;99.90;;;;;;5016361;28;20613;-83
2023/03/11 12:47:10;;;;;;;3.97;1.00;;;8.90;99.90;;;;;;5031922;28;20214;-80
2023/03/11 12:49:38;;;;;;;2.97;0.80;;;8.80;99.90;;;;;;5022685;28;20229;-82
2023/03/11 12:52:18;;;;;;;1.83;0.70;;;8.80;99.90;;;;;;5021061;28;20237;-82
2023/03/11 12:54:46;;;;;;;3.13;1.00;;;8.80;99.90;;;;;;5032965;28;20301;-81
2023/03/11 12:57:31;;;;;;;3.23;0.90;;;8.70;99.90;;;;;;5033985;28;20199;-83
2023/03/11 13:00:18;;;;;;;1.47;0.70;;;8.60;99.90;;;;;;5018721;28;20253;-85
2023/03/11 13:03:11;;;;;;;1.07;0.70;;;8.60;99.90;;;;;;5027146;28;20624;-89
2023/03/11 13:06:00;;;;;;;4.63;1.37;;;8.60;99.90;;;;;;5016441;28;20284;-86
2023/03/11 13:08:31;;;;;;;4.70;0.73;;;8.60;99.90;;;;;;5024415;28;20297;-78
2023/03/11 13:10:58;;;;;;;3.30;0.60;;;8.60;99.90;;;;;;5028417;28;20556;-82
2023/03/11 13:13:39;;;;;;;4.43;1.67;;;8.60;99.90;;;;;;5032402;28;20296;-79